Terminal Aerodrome Forecast
Issued by NWS

Home | Current Version | Previous Version | Text Only | Print | Product List | Glossary On
Versions: 1 2 3 4 5 6 7 8 9 10 11 12 13 14 15
000
FTUS42 TJSJ 181700
TAFISX
TAF
TISX 181739Z 1818/1918 10016G24KT P6SM VCSH SCT022 SCT040
      TEMPO 1818/1822 09019G27KT 5SM -SHRA BKN025
     FM182300 09012KT P6SM FEW025 SCT050 SCT070
     FM190230 07010KT P6SM VCSH SCT022 SCT040
     FM191430 10017KT P6SM FEW028 SCT070=

USA.gov is the U.S. government's official web portal to all federal, state and local government web resources and services.